createdAt,value
2023-07-07T00:01:31.888Z,15.48
2023-07-07T00:03:58.704Z,15.54
2023-07-07T00:06:25.430Z,15.63
2023-07-07T00:08:52.307Z,15.63
2023-07-07T00:11:19.064Z,15.61
2023-07-07T00:13:45.800Z,15.58
2023-07-07T00:16:12.601Z,15.52
2023-07-07T00:18:39.414Z,15.51
2023-07-07T00:21:06.677Z,15.54
2023-07-07T00:23:40.070Z,15.48
2023-07-07T00:26:09.431Z,15.49
2023-07-07T00:28:36.770Z,15.47
2023-07-07T00:31:04.442Z,15.46
2023-07-07T00:33:31.570Z,15.33
2023-07-07T00:35:58.280Z,15.26
2023-07-07T00:38:25.370Z,15.19
2023-07-07T00:40:53.733Z,15.15
2023-07-07T00:43:21.971Z,14.98
2023-07-07T00:45:48.711Z,14.91
2023-07-07T00:48:27.790Z,14.92
2023-07-07T00:51:24.320Z,14.86
2023-07-07T00:53:53.899Z,14.79
2023-07-07T00:56:27.320Z,14.82
2023-07-07T00:58:59.477Z,14.81
2023-07-07T01:01:26.691Z,14.80
2023-07-07T01:03:57.720Z,14.78
2023-07-07T01:06:28.937Z,14.75
2023-07-07T01:09:01.431Z,14.70
2023-07-07T01:11:29.267Z,14.72
2023-07-07T01:13:58.367Z,14.66
2023-07-07T01:16:42.890Z,14.58
2023-07-07T01:19:17.354Z,14.53
2023-07-07T01:22:13.394Z,14.50
2023-07-07T01:24:48.042Z,14.45
2023-07-07T01:27:58.687Z,14.43
2023-07-07T01:30:37.752Z,14.38
2023-07-07T01:33:09.353Z,14.25
2023-07-07T01:35:36.359Z,14.14
2023-07-07T01:38:04.553Z,14.16
2023-07-07T01:40:34.199Z,14.19
2023-07-07T01:43:07.718Z,14.19
2023-07-07T01:45:47.420Z,14.16
2023-07-07T01:48:25.281Z,14.18
2023-07-07T01:50:52.949Z,14.17
2023-07-07T01:53:28.918Z,14.16
2023-07-07T01:56:00.186Z,14.15
2023-07-07T01:58:29.324Z,14.12
2023-07-07T02:00:58.607Z,14.13
2023-07-07T02:03:27.748Z,14.03
2023-07-07T02:05:54.467Z,14.03
2023-07-07T02:08:21.231Z,14.00
2023-07-07T02:10:48.058Z,13.95
2023-07-07T02:13:14.768Z,13.95
2023-07-07T02:15:41.592Z,13.97
2023-07-07T02:18:08.464Z,13.95
2023-07-07T02:20:35.304Z,13.92
2023-07-07T02:23:02.141Z,13.92
2023-07-07T02:25:30.537Z,13.92
2023-07-07T02:27:57.221Z,13.86
2023-07-07T02:30:26.478Z,13.83
2023-07-07T02:32:53.370Z,13.76
2023-07-07T02:35:20.128Z,13.74
2023-07-07T02:37:46.889Z,13.74
2023-07-07T02:40:13.723Z,13.71
2023-07-07T02:42:42.873Z,13.65
2023-07-07T02:45:09.988Z,13.62
2023-07-07T02:47:36.834Z,13.58
2023-07-07T02:50:04.201Z,13.58
2023-07-07T02:52:31.291Z,13.52
2023-07-07T02:54:58.026Z,13.48
2023-07-07T02:57:24.822Z,13.47
2023-07-07T02:59:51.538Z,13.42
2023-07-07T03:02:18.439Z,13.41
2023-07-07T03:04:50.618Z,13.41
2023-07-07T03:07:17.363Z,13.37
2023-07-07T03:09:44.424Z,13.30
2023-07-07T03:12:11.915Z,13.32
2023-07-07T03:14:38.621Z,13.32
2023-07-07T03:17:07.355Z,13.29
2023-07-07T03:19:42.694Z,13.22
2023-07-07T03:22:16.083Z,13.13
2023-07-07T03:24:53.827Z,13.16
2023-07-07T03:27:38.266Z,13.13
2023-07-07T03:30:09.938Z,13.16
2023-07-07T03:32:51.614Z,13.10
2023-07-07T03:35:19.830Z,13.10
2023-07-07T03:37:46.630Z,13.11
2023-07-07T03:40:14.397Z,13.11
2023-07-07T03:42:41.328Z,13.12
2023-07-07T03:45:11.416Z,13.12
2023-07-07T03:47:39.016Z,13.13
2023-07-07T03:50:09.249Z,13.10
2023-07-07T03:52:36.422Z,13.11
2023-07-07T03:55:04.050Z,13.11
2023-07-07T03:57:30.802Z,13.12
2023-07-07T03:59:57.498Z,13.08
2023-07-07T04:02:24.243Z,13.09
2023-07-07T04:04:51.181Z,13.09
2023-07-07T04:07:18.023Z,13.16
2023-07-07T04:09:44.735Z,13.19
2023-07-07T04:12:11.582Z,13.21
2023-07-07T04:14:38.293Z,13.20
2023-07-07T04:17:05.382Z,13.24
2023-07-07T04:19:32.067Z,13.25
2023-07-07T04:21:58.972Z,13.25
2023-07-07T04:24:25.667Z,13.23
2023-07-07T04:26:52.419Z,13.24
2023-07-07T04:29:19.225Z,13.25
2023-07-07T04:31:47.159Z,13.30
2023-07-07T04:34:15.777Z,13.40
2023-07-07T04:36:45.748Z,13.47
2023-07-07T04:39:13.035Z,13.54
2023-07-07T04:41:39.990Z,13.62
2023-07-07T04:44:06.737Z,13.70
2023-07-07T04:46:39.482Z,13.77
2023-07-07T04:49:08.816Z,13.88
2023-07-07T04:51:41.768Z,13.97
2023-07-07T04:54:12.688Z,14.08
2023-07-07T04:56:39.865Z,14.17
2023-07-07T04:59:08.121Z,14.24
2023-07-07T05:01:35.110Z,14.38
2023-07-07T05:04:03.576Z,14.54
2023-07-07T05:06:34.054Z,14.72
2023-07-07T05:09:02.494Z,14.87
2023-07-07T05:11:31.445Z,15.13
2023-07-07T05:13:58.979Z,15.33
2023-07-07T05:16:28.627Z,15.53
2023-07-07T05:18:55.394Z,15.70
2023-07-07T05:21:24.300Z,15.89
2023-07-07T05:23:53.412Z,16.03
2023-07-07T05:26:22.006Z,16.16
2023-07-07T05:28:49.636Z,16.39
2023-07-07T05:31:16.360Z,16.53
2023-07-07T05:33:43.115Z,16.60
2023-07-07T05:36:10.460Z,16.72
2023-07-07T05:38:40.006Z,16.83
2023-07-07T05:41:07.274Z,16.91
2023-07-07T05:43:37.355Z,16.96
2023-07-07T05:46:06.688Z,16.99
2023-07-07T05:48:33.519Z,17.01
2023-07-07T05:51:05.001Z,17.14
2023-07-07T05:53:31.976Z,17.24
2023-07-07T05:56:10.717Z,17.20
2023-07-07T05:58:37.931Z,17.26
2023-07-07T06:01:05.124Z,17.34
2023-07-07T06:03:33.422Z,17.49
2023-07-07T06:06:00.318Z,17.70
2023-07-07T06:08:27.021Z,17.87
2023-07-07T06:10:54.130Z,18.03
2023-07-07T06:13:25.596Z,18.12
2023-07-07T06:15:53.365Z,18.15
2023-07-07T06:18:20.797Z,18.33
2023-07-07T06:20:51.647Z,18.46
2023-07-07T06:23:18.407Z,18.71
2023-07-07T06:25:45.292Z,18.68
2023-07-07T06:28:11.993Z,18.75
2023-07-07T06:30:38.742Z,18.95
2023-07-07T06:33:05.529Z,19.02
2023-07-07T06:35:33.474Z,19.06
2023-07-07T06:38:00.272Z,19.26
2023-07-07T06:40:27.110Z,19.37
2023-07-07T06:42:56.373Z,19.51
2023-07-07T06:45:24.447Z,19.57
2023-07-07T06:47:51.182Z,19.61
2023-07-07T06:50:23.277Z,19.78
2023-07-07T06:52:50.060Z,20.06
2023-07-07T06:55:16.784Z,20.12
2023-07-07T06:57:43.519Z,20.00
2023-07-07T07:00:10.917Z,20.19
2023-07-07T07:02:37.696Z,20.16
2023-07-07T07:05:04.721Z,20.01
2023-07-07T07:07:33.224Z,20.03
2023-07-07T07:10:03.704Z,20.20
2023-07-07T07:12:31.698Z,20.31
2023-07-07T07:14:58.578Z,20.33
2023-07-07T07:17:26.279Z,20.41
2023-07-07T07:19:53.829Z,20.59
2023-07-07T07:22:21.238Z,20.62
2023-07-07T07:24:47.954Z,20.68
2023-07-07T07:27:14.939Z,20.83
2023-07-07T07:29:44.666Z,21.12
2023-07-07T07:32:11.920Z,21.45
2023-07-07T07:34:39.209Z,21.54
2023-07-07T07:37:06.921Z,21.53
2023-07-07T07:39:34.369Z,21.68
2023-07-07T07:42:01.258Z,21.89
2023-07-07T07:44:27.994Z,22.11
2023-07-07T07:46:57.202Z,22.09
2023-07-07T07:49:25.516Z,22.02
2023-07-07T07:51:52.279Z,22.15
2023-07-07T07:54:20.977Z,22.32
2023-07-07T07:56:47.842Z,22.27
2023-07-07T07:59:15.102Z,22.83
2023-07-07T08:01:42.357Z,22.82
2023-07-07T08:04:09.515Z,22.93
2023-07-07T08:06:36.310Z,22.94
2023-07-07T08:09:04.710Z,22.98
2023-07-07T08:11:43.711Z,23.04
2023-07-07T08:14:11.608Z,23.06
2023-07-07T08:16:38.494Z,23.22
2023-07-07T08:21:32.029Z,23.49
2023-07-07T08:23:58.851Z,23.45
2023-07-07T08:26:26.704Z,23.62
2023-07-07T08:28:53.930Z,23.85
2023-07-07T08:31:20.661Z,23.96
2023-07-07T08:33:57.691Z,24.12
2023-07-07T08:36:27.719Z,24.69
2023-07-07T08:38:54.497Z,24.63
2023-07-07T08:41:21.329Z,24.28
2023-07-07T08:43:49.107Z,24.40
2023-07-07T08:46:27.066Z,24.64
2023-07-07T08:49:06.125Z,24.62
2023-07-07T08:51:40.517Z,24.58
2023-07-07T08:54:46.691Z,24.90
2023-07-07T08:57:15.935Z,25.04
2023-07-07T09:00:00.924Z,24.85
2023-07-07T09:02:30.611Z,24.72
2023-07-07T09:05:09.662Z,24.76
2023-07-07T09:07:47.496Z,24.83
2023-07-07T09:10:39.418Z,24.84
2023-07-07T09:13:22.005Z,24.81
2023-07-07T09:16:22.047Z,25.09
2023-07-07T09:19:05.719Z,24.94
2023-07-07T09:21:53.868Z,24.74
2023-07-07T09:24:28.118Z,25.13
2023-07-07T09:27:01.011Z,25.31
2023-07-07T09:29:32.153Z,25.29
2023-07-07T09:32:04.225Z,25.41
2023-07-07T09:34:34.190Z,25.09
2023-07-07T09:37:37.896Z,25.65
2023-07-07T09:40:21.205Z,25.43
2023-07-07T09:42:58.340Z,25.36
2023-07-07T09:46:00.152Z,25.69
2023-07-07T09:48:34.678Z,25.93
2023-07-07T09:51:12.355Z,26.21
2023-07-07T09:53:47.288Z,26.45
2023-07-07T09:56:30.699Z,26.39
2023-07-07T09:59:07.299Z,26.76
2023-07-07T10:01:43.252Z,26.93
2023-07-07T10:04:16.493Z,26.18
2023-07-07T10:06:53.412Z,26.25
2023-07-07T10:09:20.148Z,26.34
2023-07-07T10:12:14.457Z,26.89
2023-07-07T10:14:35.786Z,27.34
2023-07-07T10:17:20.507Z,27.36
2023-07-07T10:20:00.350Z,26.91
2023-07-07T10:22:27.087Z,27.06
2023-07-07T10:24:53.810Z,27.00
2023-07-07T10:27:24.837Z,26.99
2023-07-07T10:29:51.554Z,27.37
2023-07-07T10:32:22.388Z,27.44
2023-07-07T10:34:53.210Z,27.23
2023-07-07T10:37:22.661Z,27.08
2023-07-07T10:39:58.054Z,27.36
2023-07-07T10:42:26.305Z,26.94
2023-07-07T10:44:55.268Z,26.67
2023-07-07T10:47:32.285Z,26.94
2023-07-07T10:50:00.701Z,27.11
2023-07-07T10:55:32.909Z,27.28
2023-07-07T10:58:02.652Z,27.39
2023-07-07T11:00:56.874Z,27.94
2023-07-07T11:03:58.508Z,28.23
2023-07-07T11:06:31.975Z,27.73
2023-07-07T11:09:05.688Z,27.62
2023-07-07T11:11:52.558Z,27.73
2023-07-07T11:14:36.280Z,27.98
2023-07-07T11:17:13.300Z,28.51
2023-07-07T11:19:58.321Z,29.30
2023-07-07T11:22:46.837Z,29.16
2023-07-07T11:25:38.586Z,28.91
2023-07-07T11:28:34.631Z,28.79
2023-07-07T11:31:37.447Z,29.41
2023-07-07T11:34:24.862Z,29.04
2023-07-07T11:37:09.091Z,28.85
2023-07-07T11:39:47.896Z,28.57
2023-07-07T11:42:33.613Z,28.72
2023-07-07T11:45:32.378Z,29.17
2023-07-07T11:48:25.634Z,28.69
2023-07-07T11:50:58.675Z,28.34
2023-07-07T11:53:40.753Z,28.76
2023-07-07T11:56:45.553Z,28.76
2023-07-07T11:59:49.537Z,28.94
2023-07-07T12:02:40.216Z,29.18
2023-07-07T12:05:14.285Z,28.97
2023-07-07T12:07:48.716Z,29.19
2023-07-07T12:10:20.411Z,29.28
2023-07-07T12:12:55.481Z,28.64
2023-07-07T12:15:28.927Z,28.38
2023-07-07T12:18:17.302Z,28.47
2023-07-07T12:20:47.970Z,29.11
2023-07-07T12:23:21.077Z,29.88
2023-07-07T12:25:47.930Z,30.15
2023-07-07T12:28:15.157Z,29.33
2023-07-07T12:30:48.045Z,28.95
2023-07-07T12:33:16.530Z,29.15
2023-07-07T12:36:00.677Z,29.54
2023-07-07T12:38:33.471Z,29.31
2023-07-07T12:41:25.689Z,30.03
2023-07-07T12:43:57.911Z,30.44
2023-07-07T12:46:30.416Z,29.55
2023-07-07T12:49:00.332Z,29.09
2023-07-07T12:51:34.006Z,29.16
2023-07-07T12:54:00.742Z,29.30
2023-07-07T12:56:32.770Z,29.29
2023-07-07T12:59:01.249Z,29.70
2023-07-07T13:01:39.532Z,30.21
2023-07-07T13:04:06.497Z,30.22
2023-07-07T13:06:33.403Z,30.14
2023-07-07T13:09:15.432Z,30.17
2023-07-07T13:11:46.248Z,30.14
2023-07-07T13:14:40.291Z,30.02
2023-07-07T13:17:23.780Z,30.27
2023-07-07T13:20:01.781Z,30.31
2023-07-07T13:23:10.391Z,30.23
2023-07-07T13:25:38.541Z,29.67
2023-07-07T13:28:12.089Z,29.32
2023-07-07T13:30:42.812Z,29.56
2023-07-07T13:33:13.609Z,29.22
2023-07-07T13:35:46.429Z,29.30
2023-07-07T13:38:19.264Z,29.75
2023-07-07T13:40:47.999Z,30.10
2023-07-07T13:43:30.707Z,30.49
2023-07-07T13:46:03.315Z,30.86
2023-07-07T13:48:33.886Z,31.06
2023-07-07T13:51:12.421Z,31.29
2023-07-07T13:53:39.712Z,30.92
2023-07-07T13:56:07.199Z,30.79
2023-07-07T13:58:34.342Z,30.54
2023-07-07T14:01:04.038Z,29.95
2023-07-07T14:03:33.884Z,29.81
2023-07-07T14:06:16.173Z,30.38
2023-07-07T14:08:43.283Z,30.11
2023-07-07T14:11:21.785Z,30.17
2023-07-07T14:14:00.600Z,30.18
2023-07-07T14:16:35.856Z,29.72
2023-07-07T14:19:09.726Z,29.74
2023-07-07T14:21:36.714Z,29.77
2023-07-07T14:24:03.901Z,29.67
2023-07-07T14:26:31.437Z,29.58
2023-07-07T14:28:59.157Z,29.23
2023-07-07T14:31:26.920Z,29.13
2023-07-07T14:34:04.187Z,29.54
2023-07-07T14:36:38.165Z,29.83
2023-07-07T14:39:23.734Z,29.55
2023-07-07T14:41:52.827Z,29.70
2023-07-07T14:44:56.268Z,29.67
2023-07-07T14:47:34.733Z,29.92
2023-07-07T14:50:10.435Z,29.90
2023-07-07T14:52:44.921Z,29.45
2023-07-07T14:55:22.299Z,29.20
2023-07-07T14:57:54.438Z,28.88
2023-07-07T15:00:31.807Z,28.80
2023-07-07T15:02:58.979Z,28.74
2023-07-07T15:05:30.121Z,28.87
2023-07-07T15:08:07.184Z,29.11
2023-07-07T15:10:34.755Z,28.94
2023-07-07T15:13:01.947Z,28.99
2023-07-07T15:15:28.863Z,29.18
2023-07-07T15:17:55.698Z,29.10
2023-07-07T15:20:22.618Z,29.16
2023-07-07T15:22:49.345Z,29.27
2023-07-07T15:25:16.160Z,28.93
2023-07-07T15:27:43.105Z,28.45
2023-07-07T15:30:18.734Z,28.18
2023-07-07T15:32:46.351Z,28.32
2023-07-07T15:35:19.004Z,28.56
2023-07-07T15:37:49.261Z,28.70
2023-07-07T15:40:22.225Z,28.73
2023-07-07T15:42:52.543Z,28.75
2023-07-07T15:45:19.512Z,28.36
2023-07-07T15:47:47.565Z,28.24
2023-07-07T15:50:21.209Z,28.52
2023-07-07T15:52:48.151Z,28.54
2023-07-07T15:55:15.036Z,28.10
2023-07-07T15:57:41.781Z,27.82
2023-07-07T16:00:29.718Z,27.68
2023-07-07T16:02:56.473Z,27.73
2023-07-07T16:05:24.023Z,27.72
2023-07-07T16:07:51.022Z,28.01
2023-07-07T16:10:17.872Z,27.86
2023-07-07T16:12:44.576Z,27.79
2023-07-07T16:15:11.423Z,27.80
2023-07-07T16:17:38.193Z,27.90
2023-07-07T16:20:22.812Z,27.94
2023-07-07T16:22:59.042Z,27.57
2023-07-07T16:25:27.765Z,27.51
2023-07-07T16:27:55.739Z,27.50
2023-07-07T16:30:34.819Z,27.42
2023-07-07T16:33:01.566Z,27.46
2023-07-07T16:35:28.967Z,27.63
2023-07-07T16:37:55.701Z,27.70
2023-07-07T16:40:36.665Z,27.57
2023-07-07T16:43:04.569Z,27.38
2023-07-07T16:45:31.734Z,27.41
2023-07-07T16:47:58.520Z,27.46
2023-07-07T16:50:25.233Z,27.37
2023-07-07T16:52:54.657Z,27.27
2023-07-07T16:55:21.374Z,27.30
2023-07-07T16:57:48.168Z,27.23
2023-07-07T17:00:26.877Z,27.09
2023-07-07T17:02:54.352Z,27.18
2023-07-07T17:05:23.298Z,27.22
2023-07-07T17:07:50.271Z,27.08
2023-07-07T17:10:19.181Z,27.07
2023-07-07T17:12:45.933Z,26.93
2023-07-07T17:15:14.263Z,26.75
2023-07-07T17:17:41.421Z,26.67
2023-07-07T17:20:23.230Z,26.60
2023-07-07T17:22:50.906Z,26.66
2023-07-07T17:25:19.730Z,26.62
2023-07-07T17:27:48.241Z,26.62
2023-07-07T17:30:21.505Z,26.55
2023-07-07T17:32:49.054Z,26.53
2023-07-07T17:35:17.680Z,26.48
2023-07-07T17:37:47.365Z,26.44
2023-07-07T17:40:35.792Z,26.45
2023-07-07T17:43:02.687Z,26.39
2023-07-07T17:45:29.368Z,26.27
2023-07-07T17:47:56.130Z,26.25
2023-07-07T17:50:26.590Z,26.17
2023-07-07T17:52:53.456Z,26.10
2023-07-07T17:55:22.113Z,26.01
2023-07-07T17:57:49.603Z,25.86
2023-07-07T18:00:18.122Z,25.77
2023-07-07T18:02:45.156Z,25.73
2023-07-07T18:05:12.010Z,25.66
2023-07-07T18:07:38.774Z,25.59
2023-07-07T18:10:19.533Z,25.53
2023-07-07T18:12:50.971Z,25.50
2023-07-07T18:15:18.322Z,25.44
2023-07-07T18:17:59.417Z,25.41
2023-07-07T18:21:44.380Z,25.33
2023-07-07T18:23:31.152Z,25.23
2023-07-07T18:25:58.221Z,25.18
2023-07-07T18:28:25.196Z,25.13
2023-07-07T18:30:56.832Z,25.07
2023-07-07T18:33:24.277Z,25.02
2023-07-07T18:35:51.373Z,24.97
2023-07-07T18:38:21.635Z,24.87
2023-07-07T18:40:48.335Z,24.76
2023-07-07T18:43:15.112Z,24.72
2023-07-07T18:45:41.952Z,24.69
2023-07-07T18:48:14.335Z,24.69
2023-07-07T18:50:41.169Z,24.59
2023-07-07T18:53:08.764Z,24.48
2023-07-07T18:55:35.509Z,24.40
2023-07-07T18:58:02.241Z,24.35
2023-07-07T19:00:43.180Z,24.26
2023-07-07T19:03:12.534Z,24.17
2023-07-07T19:05:40.053Z,24.11
2023-07-07T19:08:12.419Z,24.08
2023-07-07T19:10:41.547Z,24.03
2023-07-07T19:13:16.946Z,23.95
2023-07-07T19:15:46.914Z,23.87
2023-07-07T19:18:40.654Z,23.79
2023-07-07T19:21:25.380Z,23.73
2023-07-07T19:23:53.070Z,23.65
2023-07-07T19:26:33.812Z,23.59
2023-07-07T19:29:05.889Z,23.49
2023-07-07T19:31:34.213Z,23.44
2023-07-07T19:34:01.352Z,23.37
2023-07-07T19:36:30.777Z,23.36
2023-07-07T19:38:57.891Z,23.31
2023-07-07T19:41:27.355Z,23.24
2023-07-07T19:43:54.276Z,23.18
2023-07-07T19:46:33.339Z,23.14
2023-07-07T19:49:02.149Z,23.10
2023-07-07T19:51:33.632Z,23.01
2023-07-07T19:54:01.906Z,23.00
2023-07-07T19:56:29.678Z,22.93
2023-07-07T19:58:58.827Z,22.86
2023-07-07T20:01:32.262Z,22.83
2023-07-07T20:03:59.105Z,22.73
2023-07-07T20:06:29.630Z,22.71
2023-07-07T20:08:56.531Z,22.66
2023-07-07T20:11:32.970Z,22.63
2023-07-07T20:13:59.953Z,22.55
2023-07-07T20:16:50.977Z,22.59
2023-07-07T20:19:22.408Z,22.54
2023-07-07T20:21:50.732Z,22.50
2023-07-07T20:24:21.618Z,22.46
2023-07-07T20:26:49.915Z,22.45
2023-07-07T20:29:18.271Z,22.39
2023-07-07T20:31:45.731Z,22.39
2023-07-07T20:34:13.258Z,22.34
2023-07-07T20:36:42.212Z,22.30
2023-07-07T20:39:14.216Z,22.25
2023-07-07T20:41:41.336Z,22.22
2023-07-07T20:44:08.114Z,22.19
2023-07-07T20:46:41.129Z,22.14
2023-07-07T20:49:19.821Z,22.07
2023-07-07T20:51:47.677Z,22.02
2023-07-07T20:54:15.125Z,21.96
2023-07-07T20:56:42.452Z,21.87
2023-07-07T20:59:27.976Z,21.76
2023-07-07T21:01:56.762Z,21.75
2023-07-07T21:04:24.079Z,21.68
2023-07-07T21:06:50.951Z,21.62
2023-07-07T21:09:18.127Z,21.59
2023-07-07T21:11:44.870Z,21.52
2023-07-07T21:14:11.713Z,21.54
2023-07-07T21:16:49.139Z,21.53
2023-07-07T21:19:15.939Z,21.50
2023-07-07T21:21:43.088Z,21.47
2023-07-07T21:24:09.793Z,21.42
2023-07-07T21:26:37.141Z,21.38
2023-07-07T21:29:09.701Z,21.32
2023-07-07T21:31:37.675Z,21.29
2023-07-07T21:34:29.374Z,21.28
2023-07-07T21:36:56.138Z,21.24
2023-07-07T21:39:28.193Z,21.27
2023-07-07T21:42:10.979Z,21.24
2023-07-07T21:44:41.226Z,21.24
2023-07-07T21:47:12.577Z,21.17
2023-07-07T21:49:39.327Z,21.10
2023-07-07T21:52:14.240Z,21.16
2023-07-07T21:54:41.178Z,21.17
2023-07-07T21:57:27.575Z,21.06
2023-07-07T21:59:54.380Z,21.10
2023-07-07T22:02:21.094Z,21.07
2023-07-07T22:04:47.950Z,21.06
2023-07-07T22:07:15.466Z,21.03
2023-07-07T22:09:42.267Z,21.02
2023-07-07T22:12:10.784Z,21.04
2023-07-07T22:14:37.505Z,20.98
2023-07-07T22:17:04.703Z,20.96
2023-07-07T22:19:31.576Z,20.99
2023-07-07T22:21:58.354Z,20.98
2023-07-07T22:24:25.368Z,20.95
2023-07-07T22:26:52.241Z,20.90
2023-07-07T22:29:18.997Z,20.86
2023-07-07T22:31:45.770Z,20.79
2023-07-07T22:34:12.553Z,20.62
2023-07-07T22:36:41.382Z,20.77
2023-07-07T22:39:12.852Z,20.72
2023-07-07T22:41:39.677Z,20.66
2023-07-07T22:44:06.373Z,20.59
2023-07-07T22:46:41.050Z,20.61
2023-07-07T22:49:12.671Z,20.66
2023-07-07T22:51:41.815Z,20.61
2023-07-07T22:54:08.515Z,20.61
2023-07-07T22:56:37.454Z,20.60
2023-07-07T22:59:18.610Z,20.45
2023-07-07T23:01:45.339Z,20.51
2023-07-07T23:04:12.198Z,20.45
2023-07-07T23:06:39.868Z,20.44
2023-07-07T23:09:45.649Z,20.46
2023-07-07T23:12:17.640Z,20.44
2023-07-07T23:14:46.212Z,20.30
2023-07-07T23:17:23.133Z,20.27
2023-07-07T23:19:57.068Z,20.27
2023-07-07T23:22:32.924Z,20.25
2023-07-07T23:25:01.138Z,20.16
2023-07-07T23:27:36.321Z,20.14
2023-07-07T23:30:08.771Z,20.15
2023-07-07T23:32:35.510Z,20.06
2023-07-07T23:35:02.743Z,20.04
2023-07-07T23:37:30.947Z,19.95
2023-07-07T23:39:58.549Z,19.96
2023-07-07T23:42:27.097Z,19.93
2023-07-07T23:44:54.613Z,19.85
2023-07-07T23:47:22.548Z,19.98
2023-07-07T23:49:49.345Z,19.83
2023-07-07T23:52:20.071Z,19.81
2023-07-07T23:54:47.012Z,19.75
2023-07-07T23:57:20.887Z,19.78
2023-07-07T23:59:47.711Z,19.73
